createdAt,value
2018-10-02T00:00:29.493Z,3.87
2018-10-02T00:01:35.634Z,3.87
2018-10-02T00:02:41.743Z,3.79
2018-10-02T00:03:47.873Z,3.72
2018-10-02T00:04:53.987Z,3.65
2018-10-02T00:06:00.121Z,3.72
2018-10-02T00:07:06.284Z,3.76
2018-10-02T00:08:13.357Z,3.75
2018-10-02T00:09:18.486Z,3.82
2018-10-02T00:10:24.926Z,3.95
2018-10-02T00:11:30.754Z,4.08
2018-10-02T00:12:36.878Z,4.14
2018-10-02T00:13:42.991Z,4.09
2018-10-02T00:14:49.126Z,4.16
2018-10-02T00:15:55.258Z,4.19
2018-10-02T00:17:01.364Z,4.19
2018-10-02T00:18:07.504Z,4.16
2018-10-02T00:19:13.626Z,4.24
2018-10-02T00:20:19.750Z,4.32
2018-10-02T00:21:25.885Z,4.36
2018-10-02T00:22:32.091Z,4.30
2018-10-02T00:23:37.632Z,4.13
2018-10-02T00:24:44.278Z,4.08
2018-10-02T00:25:50.369Z,4.07
2018-10-02T00:26:56.508Z,4.08
2018-10-02T00:28:02.636Z,4.07
2018-10-02T00:29:08.751Z,4.00
2018-10-02T00:30:14.867Z,4.13
2018-10-02T00:31:21.024Z,4.17
2018-10-02T00:32:27.334Z,4.18
2018-10-02T00:33:33.261Z,4.23
2018-10-02T00:34:39.396Z,4.11
2018-10-02T00:35:45.519Z,3.91
2018-10-02T00:36:51.649Z,3.87
2018-10-02T00:37:57.780Z,3.94
2018-10-02T00:39:04.890Z,3.99
2018-10-02T00:40:10.024Z,3.88
2018-10-02T00:41:16.152Z,3.85
2018-10-02T00:42:22.291Z,3.69
2018-10-02T00:43:28.408Z,3.52
2018-10-02T00:44:34.519Z,3.41
2018-10-02T00:45:40.657Z,3.31
2018-10-02T00:46:46.787Z,3.18
2018-10-02T00:47:52.899Z,3.14
2018-10-02T00:48:59.016Z,3.23
2018-10-02T00:50:05.137Z,3.16
2018-10-02T00:51:11.267Z,3.25
2018-10-02T00:52:17.380Z,3.27
2018-10-02T00:53:23.497Z,3.57
2018-10-02T00:54:29.618Z,3.79
2018-10-02T00:55:35.720Z,3.91
2018-10-02T00:56:41.858Z,3.95
2018-10-02T00:57:47.966Z,3.96
2018-10-02T00:58:54.077Z,3.87
2018-10-02T01:00:01.217Z,3.74
2018-10-02T01:01:06.327Z,3.68
2018-10-02T01:02:12.450Z,3.66
2018-10-02T01:03:18.559Z,3.75
2018-10-02T01:04:24.678Z,3.78
2018-10-02T01:05:30.788Z,3.87
2018-10-02T01:06:36.918Z,4.00
2018-10-02T01:07:43.030Z,4.03
2018-10-02T01:08:49.143Z,4.03
2018-10-02T01:09:55.266Z,4.02
2018-10-02T01:11:01.389Z,4.03
2018-10-02T01:12:07.509Z,4.13
2018-10-02T01:13:13.625Z,4.11
2018-10-02T01:14:19.744Z,4.06
2018-10-02T01:15:25.872Z,4.13
2018-10-02T01:16:31.985Z,4.08
2018-10-02T01:17:38.107Z,4.20
2018-10-02T01:18:44.279Z,4.28
2018-10-02T01:19:50.340Z,4.40
2018-10-02T01:20:56.466Z,4.45
2018-10-02T01:22:02.591Z,4.50
2018-10-02T01:23:08.706Z,4.56
2018-10-02T01:24:14.838Z,4.63
2018-10-02T01:25:20.975Z,4.69
2018-10-02T01:26:27.096Z,4.70
2018-10-02T01:27:33.275Z,4.80
2018-10-02T01:28:39.328Z,4.89
2018-10-02T01:29:45.477Z,4.92
2018-10-02T01:30:51.604Z,4.84
2018-10-02T01:31:57.743Z,4.83
2018-10-02T01:33:03.841Z,4.80
2018-10-02T01:34:09.987Z,4.80
2018-10-02T01:35:16.128Z,4.71
2018-10-02T01:36:22.256Z,4.73
2018-10-02T01:37:28.371Z,4.60
2018-10-02T01:38:34.506Z,4.53
2018-10-02T01:39:40.627Z,4.51
2018-10-02T01:40:47.771Z,4.46
2018-10-02T01:41:52.951Z,4.45
2018-10-02T01:42:59.042Z,4.41
2018-10-02T01:44:05.151Z,4.39
2018-10-02T01:45:11.293Z,4.49
2018-10-02T01:46:17.442Z,4.44
2018-10-02T01:47:24.552Z,4.45
2018-10-02T01:48:29.696Z,4.48
2018-10-02T01:49:35.803Z,4.45
2018-10-02T01:50:41.940Z,4.39
2018-10-02T01:51:48.096Z,4.27
2018-10-02T01:52:55.271Z,4.24
2018-10-02T01:54:00.344Z,4.18
2018-10-02T01:55:06.478Z,4.10
2018-10-02T01:56:12.600Z,4.11
2018-10-02T01:57:18.754Z,4.07
2018-10-02T01:58:24.859Z,4.20
2018-10-02T01:59:31.027Z,4.20
2018-10-02T02:00:37.108Z,4.16
2018-10-02T02:01:43.282Z,4.09
2018-10-02T02:02:49.829Z,4.04
2018-10-02T02:03:55.512Z,4.01
2018-10-02T02:05:01.634Z,3.93
2018-10-02T02:06:07.754Z,3.98
2018-10-02T02:07:13.899Z,4.08
2018-10-02T02:08:20.018Z,4.02
2018-10-02T02:09:26.153Z,3.92
2018-10-02T02:10:32.262Z,3.86
2018-10-02T02:11:38.409Z,3.97
2018-10-02T02:12:44.534Z,4.11
2018-10-02T02:13:50.704Z,4.14
2018-10-02T02:14:56.782Z,4.24
2018-10-02T02:16:02.913Z,4.19
2018-10-02T02:17:09.057Z,4.10
2018-10-02T02:18:15.278Z,4.10
2018-10-02T02:19:21.319Z,4.17
2018-10-02T02:20:27.450Z,4.15
2018-10-02T02:21:33.581Z,4.12
2018-10-02T02:22:39.711Z,4.02
2018-10-02T02:23:45.850Z,3.95
2018-10-02T02:24:52.014Z,3.91
2018-10-02T02:25:58.125Z,3.89
2018-10-02T02:27:04.250Z,3.90
2018-10-02T02:28:10.365Z,3.87
2018-10-02T02:29:16.517Z,3.75
2018-10-02T02:30:22.640Z,3.67
2018-10-02T02:31:28.771Z,3.59
2018-10-02T02:32:34.894Z,3.56
2018-10-02T02:33:41.019Z,3.52
2018-10-02T02:34:47.143Z,3.46
2018-10-02T02:35:53.277Z,3.41
2018-10-02T02:36:59.392Z,3.37
2018-10-02T02:38:05.520Z,3.38
2018-10-02T02:39:11.651Z,3.35
2018-10-02T02:40:17.781Z,3.32
2018-10-02T02:41:23.891Z,3.29
2018-10-02T02:42:30.034Z,3.23
2018-10-02T02:43:36.158Z,3.23
2018-10-02T02:44:42.284Z,3.19
2018-10-02T02:45:48.400Z,3.14
2018-10-02T02:46:54.512Z,3.11
2018-10-02T02:48:00.662Z,3.09
2018-10-02T02:49:06.759Z,3.13
2018-10-02T02:50:12.880Z,3.13
2018-10-02T02:51:19.008Z,3.11
2018-10-02T02:52:25.146Z,3.16
2018-10-02T02:53:31.307Z,3.13
2018-10-02T02:54:37.363Z,3.03
2018-10-02T02:55:44.473Z,2.95
2018-10-02T02:56:49.593Z,2.89
2018-10-02T02:57:55.716Z,2.86
2018-10-02T02:59:01.840Z,2.91
2018-10-02T03:00:07.940Z,2.95
2018-10-02T03:01:14.059Z,2.90
2018-10-02T03:02:20.188Z,2.91
2018-10-02T03:03:26.281Z,2.90
2018-10-02T03:04:32.417Z,2.90
2018-10-02T03:05:38.517Z,2.92
2018-10-02T03:06:44.636Z,2.94
2018-10-02T03:07:50.743Z,2.99
2018-10-02T03:08:57.851Z,3.05
2018-10-02T03:10:02.981Z,3.19
2018-10-02T03:11:09.094Z,3.32
2018-10-02T03:12:15.280Z,3.39
2018-10-02T03:13:21.332Z,3.46
2018-10-02T03:14:27.442Z,3.56
2018-10-02T03:15:33.540Z,3.54
2018-10-02T03:16:39.669Z,3.43
2018-10-02T03:17:45.779Z,3.43
2018-10-02T03:18:51.884Z,3.48
2018-10-02T03:19:58.007Z,3.51
2018-10-02T03:21:04.127Z,3.52
2018-10-02T03:22:10.280Z,3.54
2018-10-02T03:23:16.356Z,3.55
2018-10-02T03:24:22.453Z,3.52
2018-10-02T03:25:28.570Z,3.54
2018-10-02T03:26:34.691Z,3.58
2018-10-02T03:27:40.807Z,3.67
2018-10-02T03:28:46.907Z,3.69
2018-10-02T03:29:53.026Z,3.76
2018-10-02T03:30:59.136Z,3.79
2018-10-02T03:32:05.260Z,3.79
2018-10-02T03:33:11.380Z,3.80
2018-10-02T03:34:17.490Z,3.80
2018-10-02T03:35:23.617Z,3.78
2018-10-02T03:36:29.734Z,3.77
2018-10-02T03:37:35.857Z,3.75
2018-10-02T03:38:41.970Z,3.79
2018-10-02T03:39:48.096Z,3.84
2018-10-02T03:40:54.197Z,3.87
2018-10-02T03:42:00.359Z,3.87
2018-10-02T03:43:06.446Z,3.90
2018-10-02T03:44:12.589Z,3.91
2018-10-02T03:45:18.681Z,3.92
2018-10-02T03:46:24.809Z,3.96
2018-10-02T03:47:30.928Z,4.00
2018-10-02T03:48:37.064Z,4.02
2018-10-02T03:49:43.641Z,4.12
2018-10-02T03:50:49.316Z,4.19
2018-10-02T03:51:54.943Z,4.20
2018-10-02T03:53:01.556Z,4.20
2018-10-02T03:54:07.704Z,4.19
2018-10-02T03:55:13.809Z,4.20
2018-10-02T03:56:19.927Z,4.20
2018-10-02T03:57:26.073Z,4.17
2018-10-02T03:58:32.187Z,4.12
2018-10-02T03:59:39.335Z,4.15
2018-10-02T04:00:44.456Z,4.16
2018-10-02T04:01:50.589Z,4.20
2018-10-02T04:02:56.713Z,4.21
2018-10-02T04:04:02.858Z,4.19
2018-10-02T04:05:08.978Z,4.21
2018-10-02T04:06:15.117Z,4.24
2018-10-02T04:07:21.287Z,4.21
2018-10-02T04:08:27.356Z,4.20
2018-10-02T04:09:33.514Z,4.19
2018-10-02T04:10:39.630Z,4.23
2018-10-02T04:11:45.763Z,4.26
2018-10-02T04:12:51.895Z,4.28
2018-10-02T04:13:59.098Z,4.27
2018-10-02T04:15:04.155Z,4.25
2018-10-02T04:16:10.291Z,4.29
2018-10-02T04:17:16.423Z,4.33
2018-10-02T04:18:22.561Z,4.37
2018-10-02T04:19:28.678Z,4.36
2018-10-02T04:20:34.833Z,4.38
2018-10-02T04:21:40.963Z,4.36
2018-10-02T04:22:47.095Z,4.32
2018-10-02T04:23:53.274Z,4.31
2018-10-02T04:24:59.380Z,4.30
2018-10-02T04:26:05.483Z,4.29
2018-10-02T04:27:11.618Z,4.30
2018-10-02T04:28:17.808Z,4.28
2018-10-02T04:29:23.388Z,4.29
2018-10-02T04:30:30.055Z,4.28
2018-10-02T04:31:36.441Z,4.27
2018-10-02T04:32:42.284Z,4.24
2018-10-02T04:33:48.566Z,4.22
2018-10-02T04:34:54.544Z,4.18
2018-10-02T04:36:00.683Z,4.13
2018-10-02T04:37:06.802Z,4.06
2018-10-02T04:38:12.941Z,3.98
2018-10-02T04:39:19.092Z,3.94
2018-10-02T04:40:25.289Z,3.89
2018-10-02T04:41:31.337Z,3.90
2018-10-02T04:42:37.453Z,3.93
2018-10-02T04:43:44.594Z,3.95
2018-10-02T04:44:49.732Z,3.93
2018-10-02T04:45:55.854Z,3.94
2018-10-02T04:47:01.988Z,3.94
2018-10-02T04:48:08.107Z,3.96
2018-10-02T04:49:14.235Z,3.99
2018-10-02T04:50:20.370Z,4.01
2018-10-02T04:51:26.513Z,4.00
2018-10-02T04:52:32.640Z,3.98
2018-10-02T04:53:38.769Z,4.01
2018-10-02T04:54:44.893Z,4.04
2018-10-02T04:55:52.140Z,4.07
2018-10-02T04:56:57.272Z,4.09
2018-10-02T04:58:03.301Z,4.09
2018-10-02T04:59:09.426Z,4.09
2018-10-02T05:00:15.546Z,4.09
2018-10-02T05:01:21.679Z,4.08
2018-10-02T05:02:27.874Z,4.08
2018-10-02T05:03:33.979Z,4.12
2018-10-02T05:04:40.080Z,4.17
2018-10-02T05:05:46.230Z,4.19
2018-10-02T05:06:52.346Z,4.21
2018-10-02T05:07:58.495Z,4.20
2018-10-02T05:09:04.632Z,4.21
2018-10-02T05:10:10.761Z,4.24
2018-10-02T05:11:17.899Z,4.28
2018-10-02T05:12:23.037Z,4.33
2018-10-02T05:13:29.274Z,4.36
2018-10-02T05:14:35.317Z,4.40
2018-10-02T05:15:41.456Z,4.38
2018-10-02T05:16:47.580Z,4.40
2018-10-02T05:17:53.726Z,4.43
2018-10-02T05:18:59.867Z,4.47
2018-10-02T05:20:05.991Z,4.51
2018-10-02T05:21:12.142Z,4.52
2018-10-02T05:22:18.281Z,4.54
2018-10-02T05:23:24.405Z,4.58
2018-10-02T05:24:30.549Z,4.61
2018-10-02T05:25:36.692Z,4.67
2018-10-02T05:26:42.828Z,4.72
2018-10-02T05:27:48.997Z,4.75
2018-10-02T05:28:55.129Z,4.77
2018-10-02T05:30:01.306Z,4.81
2018-10-02T05:31:08.392Z,4.83
2018-10-02T05:32:13.540Z,4.87
2018-10-02T05:33:19.686Z,4.90
2018-10-02T05:34:25.838Z,4.93
2018-10-02T05:35:32.031Z,4.97
2018-10-02T05:36:38.119Z,4.99
2018-10-02T05:37:44.268Z,4.98
2018-10-02T05:38:50.422Z,4.97
2018-10-02T05:39:56.576Z,4.99
2018-10-02T05:41:02.729Z,5.01
2018-10-02T05:42:08.864Z,5.03
2018-10-02T05:43:16.018Z,5.06
2018-10-02T05:44:21.278Z,5.08
2018-10-02T05:45:27.319Z,5.12
2018-10-02T05:46:33.467Z,5.14
2018-10-02T05:47:39.621Z,5.15
2018-10-02T05:48:45.794Z,5.19
2018-10-02T05:49:51.941Z,5.20
2018-10-02T05:50:58.090Z,5.24
2018-10-02T05:52:04.251Z,5.26
2018-10-02T05:53:10.395Z,5.30
2018-10-02T05:54:16.551Z,5.34
2018-10-02T05:55:22.703Z,5.39
2018-10-02T05:56:28.858Z,5.44
2018-10-02T05:57:35.008Z,5.48
2018-10-02T05:58:41.276Z,5.53
2018-10-02T05:59:47.342Z,5.57
2018-10-02T06:00:53.512Z,5.62
2018-10-02T06:01:59.661Z,5.70
2018-10-02T06:03:06.835Z,5.78
2018-10-02T06:04:12.006Z,5.89
2018-10-02T06:05:18.166Z,5.98
2018-10-02T06:06:24.335Z,6.04
2018-10-02T06:07:30.520Z,6.09
2018-10-02T06:08:36.690Z,6.12
2018-10-02T06:09:42.854Z,6.15
2018-10-02T06:10:49.031Z,6.21
2018-10-02T06:11:55.269Z,6.28
2018-10-02T06:13:01.397Z,6.34
2018-10-02T06:14:07.570Z,6.38
2018-10-02T06:15:13.756Z,6.39
2018-10-02T06:16:19.951Z,6.42
2018-10-02T06:17:26.136Z,6.43
2018-10-02T06:18:32.334Z,6.44
2018-10-02T06:19:38.504Z,6.47
2018-10-02T06:20:44.689Z,6.50
2018-10-02T06:21:50.877Z,6.51
2018-10-02T06:22:57.069Z,6.54
2018-10-02T06:24:03.292Z,6.57
2018-10-02T06:25:09.450Z,6.62
2018-10-02T06:26:15.647Z,6.65
2018-10-02T06:27:21.847Z,6.69
2018-10-02T06:28:28.029Z,6.73
2018-10-02T06:29:34.213Z,6.78
2018-10-02T06:30:40.424Z,6.82
2018-10-02T06:31:46.603Z,6.84
2018-10-02T06:32:52.813Z,6.84
2018-10-02T06:33:59.522Z,6.86
2018-10-02T06:35:05.279Z,6.84
2018-10-02T06:36:11.420Z,6.86
2018-10-02T06:37:17.608Z,6.85
2018-10-02T06:38:23.957Z,6.86
2018-10-02T06:39:29.497Z,6.88
2018-10-02T06:40:36.225Z,6.89
2018-10-02T06:41:42.390Z,6.93
2018-10-02T06:42:48.602Z,6.97
2018-10-02T06:43:54.815Z,7.04
2018-10-02T06:45:01.033Z,7.07
2018-10-02T06:46:07.284Z,7.13
2018-10-02T06:47:13.420Z,7.16
2018-10-02T06:48:19.614Z,7.17
2018-10-02T06:49:25.848Z,7.18
2018-10-02T06:50:32.106Z,7.17
2018-10-02T06:51:38.263Z,7.16
2018-10-02T06:52:44.702Z,7.16
2018-10-02T06:53:50.669Z,7.16
2018-10-02T06:54:56.867Z,7.16
2018-10-02T06:56:04.079Z,7.18
2018-10-02T06:57:09.395Z,7.20
2018-10-02T06:58:15.547Z,7.22
2018-10-02T06:59:21.704Z,7.25
2018-10-02T07:00:27.950Z,7.27
2018-10-02T07:01:34.146Z,7.25
2018-10-02T07:02:40.523Z,7.24
2018-10-02T07:03:46.572Z,7.21
2018-10-02T07:04:52.778Z,7.16
2018-10-02T07:05:59.010Z,7.14
2018-10-02T07:07:05.210Z,7.09
2018-10-02T07:08:11.459Z,7.06
2018-10-02T07:09:17.625Z,7.05
2018-10-02T07:10:23.837Z,7.05
2018-10-02T07:11:30.060Z,7.06
2018-10-02T07:12:36.285Z,7.07
2018-10-02T07:13:42.480Z,7.09
2018-10-02T07:14:48.718Z,7.10
2018-10-02T07:15:54.892Z,7.11
2018-10-02T07:17:01.128Z,7.15
2018-10-02T07:18:07.294Z,7.15
2018-10-02T07:19:13.016Z,7.19
2018-10-02T07:20:19.731Z,7.25
2018-10-02T07:21:25.948Z,7.28
2018-10-02T07:22:32.152Z,7.28
2018-10-02T07:23:38.396Z,7.24
2018-10-02T07:24:44.588Z,7.22
2018-10-02T07:25:50.797Z,7.17
2018-10-02T07:26:57.182Z,7.14
2018-10-02T07:28:03.464Z,7.13
2018-10-02T07:29:10.425Z,7.13
2018-10-02T07:30:15.655Z,7.12
2018-10-02T07:31:21.860Z,7.11
2018-10-02T07:32:28.091Z,7.13
2018-10-02T07:33:34.310Z,7.11
2018-10-02T07:34:40.505Z,7.13
2018-10-02T07:35:46.722Z,7.15
2018-10-02T07:36:52.985Z,7.16
2018-10-02T07:37:59.131Z,7.18
2018-10-02T07:39:05.438Z,7.19
2018-10-02T07:40:11.569Z,7.22
2018-10-02T07:41:17.785Z,7.24
2018-10-02T07:42:24.066Z,7.24
2018-10-02T07:43:29.717Z,7.25
2018-10-02T07:44:36.472Z,7.29
2018-10-02T07:45:42.630Z,7.33
2018-10-02T07:46:48.835Z,7.38
2018-10-02T07:47:55.417Z,7.43
2018-10-02T07:49:01.285Z,7.47
2018-10-02T07:50:07.503Z,7.51
2018-10-02T07:51:13.715Z,7.52
2018-10-02T07:52:19.952Z,7.45
2018-10-02T07:53:26.204Z,7.51
2018-10-02T07:54:32.358Z,7.53
2018-10-02T07:55:38.746Z,7.53
2018-10-02T07:56:44.864Z,7.58
2018-10-02T07:57:51.031Z,7.61
2018-10-02T07:58:57.261Z,7.65
2018-10-02T08:00:03.508Z,7.69
2018-10-02T08:01:09.403Z,7.71
2018-10-02T08:02:15.917Z,7.72
2018-10-02T08:03:22.142Z,7.68
2018-10-02T08:04:28.364Z,7.65
2018-10-02T08:05:34.669Z,7.59
2018-10-02T08:06:40.820Z,7.56
2018-10-02T08:07:47.038Z,7.55
2018-10-02T08:08:53.258Z,7.48
2018-10-02T08:09:59.450Z,7.42
2018-10-02T08:11:05.694Z,7.33
2018-10-02T08:12:11.976Z,7.25
2018-10-02T08:13:18.123Z,7.20
2018-10-02T08:14:25.374Z,7.19
2018-10-02T08:15:30.541Z,7.22
2018-10-02T08:16:36.749Z,7.26
2018-10-02T08:17:43.069Z,7.32
2018-10-02T08:18:50.306Z,7.35
2018-10-02T08:19:55.432Z,7.36
2018-10-02T08:21:01.669Z,7.39
2018-10-02T08:22:07.837Z,7.43
2018-10-02T08:23:14.032Z,7.47
2018-10-02T08:24:21.237Z,7.55
2018-10-02T08:25:26.464Z,7.57
2018-10-02T08:26:32.692Z,7.61
2018-10-02T08:27:38.913Z,7.68
2018-10-02T08:28:45.098Z,7.74
2018-10-02T08:29:51.363Z,7.71
2018-10-02T08:30:57.635Z,7.67
2018-10-02T08:32:03.765Z,7.58
2018-10-02T08:33:10.149Z,7.47
2018-10-02T08:34:16.510Z,7.34
2018-10-02T08:35:22.514Z,7.29
2018-10-02T08:36:28.672Z,7.28
2018-10-02T08:37:34.822Z,7.31
2018-10-02T08:38:41.176Z,7.39
2018-10-02T08:39:47.247Z,7.44
2018-10-02T08:40:53.454Z,7.49
2018-10-02T08:41:59.708Z,7.55
2018-10-02T08:43:05.889Z,7.58
2018-10-02T08:44:12.105Z,7.61
2018-10-02T08:45:18.324Z,7.68
2018-10-02T08:46:24.534Z,7.79
2018-10-02T08:47:30.800Z,7.86
2018-10-02T08:48:36.986Z,7.92
2018-10-02T08:49:42.707Z,8.02
2018-10-02T08:50:49.441Z,8.06
2018-10-02T08:51:55.732Z,8.21
2018-10-02T08:53:01.879Z,8.34
2018-10-02T08:54:07.679Z,8.43
2018-10-02T08:55:14.350Z,8.42
2018-10-02T08:56:20.605Z,8.39
2018-10-02T08:57:26.813Z,8.33
2018-10-02T08:58:33.064Z,8.32
2018-10-02T08:59:39.297Z,8.35
2018-10-02T09:00:45.609Z,8.34
2018-10-02T09:01:51.765Z,8.30
2018-10-02T09:02:58.023Z,8.27
2018-10-02T09:04:03.754Z,8.28
2018-10-02T09:05:10.462Z,8.27
2018-10-02T09:06:16.704Z,8.29
2018-10-02T09:07:22.441Z,8.24
2018-10-02T09:08:28.673Z,8.22
2018-10-02T09:09:35.398Z,8.20
2018-10-02T09:10:41.618Z,8.18
2018-10-02T09:11:47.856Z,8.31
2018-10-02T09:12:54.111Z,8.46
2018-10-02T09:14:00.330Z,8.52
2018-10-02T09:15:12.154Z,8.63
2018-10-02T09:16:12.432Z,8.74
2018-10-02T09:17:18.551Z,8.76
2018-10-02T09:18:24.814Z,8.69
2018-10-02T09:19:31.029Z,8.53
2018-10-02T09:20:37.816Z,8.53
2018-10-02T09:21:43.544Z,8.54
2018-10-02T09:22:49.746Z,8.54
2018-10-02T09:23:56.538Z,8.52
2018-10-02T09:25:02.776Z,8.50
2018-10-02T09:26:08.463Z,8.56
2018-10-02T09:27:14.716Z,8.63
2018-10-02T09:28:20.956Z,8.72
2018-10-02T09:29:27.192Z,8.71
2018-10-02T09:30:33.455Z,8.67
2018-10-02T09:31:40.279Z,8.65
2018-10-02T09:32:46.419Z,8.62
2018-10-02T09:33:52.705Z,8.69
2018-10-02T09:34:58.413Z,8.76
2018-10-02T09:36:05.141Z,8.81
2018-10-02T09:37:11.604Z,8.78
2018-10-02T09:38:17.149Z,8.79
2018-10-02T09:39:23.893Z,8.78
2018-10-02T09:40:29.637Z,8.73
2018-10-02T09:41:36.374Z,8.60
2018-10-02T09:42:42.726Z,8.53
2018-10-02T09:43:48.418Z,8.46
2018-10-02T09:44:54.597Z,8.39
2018-10-02T09:46:00.861Z,8.32
2018-10-02T09:47:07.087Z,8.26
2018-10-02T09:48:13.808Z,8.25
2018-10-02T09:49:19.556Z,8.23
2018-10-02T09:50:26.775Z,8.30
2018-10-02T09:51:32.551Z,8.32
2018-10-02T09:52:38.262Z,8.36
2018-10-02T09:53:44.975Z,8.43
2018-10-02T09:54:51.235Z,8.44
2018-10-02T09:55:57.944Z,8.46
2018-10-02T09:57:03.768Z,8.47
2018-10-02T09:58:09.433Z,8.47
2018-10-02T09:59:15.662Z,8.51
2018-10-02T10:00:22.407Z,8.63
2018-10-02T10:01:28.628Z,8.78
2018-10-02T10:02:34.459Z,8.84
2018-10-02T10:03:40.636Z,8.97
2018-10-02T10:04:47.376Z,9.11
2018-10-02T10:05:53.146Z,9.14
2018-10-02T10:06:59.397Z,9.15
2018-10-02T10:08:06.146Z,9.12
2018-10-02T10:09:11.905Z,9.22
2018-10-02T10:10:18.157Z,9.36
2018-10-02T10:11:24.915Z,9.42
2018-10-02T10:12:31.178Z,9.44
2018-10-02T10:13:37.437Z,9.46
2018-10-02T10:14:43.197Z,9.31
2018-10-02T10:15:49.963Z,9.34
2018-10-02T10:16:56.345Z,9.38
2018-10-02T10:18:02.001Z,9.38
2018-10-02T10:19:08.747Z,9.23
2018-10-02T10:20:14.506Z,9.09
2018-10-02T10:21:20.759Z,9.13
2018-10-02T10:22:27.046Z,9.15
2018-10-02T10:23:34.283Z,9.19
2018-10-02T10:24:39.545Z,9.28
2018-10-02T10:25:45.801Z,9.20
2018-10-02T10:26:52.065Z,9.03
2018-10-02T10:27:58.818Z,8.93
2018-10-02T10:29:04.646Z,8.97
2018-10-02T10:30:10.847Z,9.01
2018-10-02T10:31:17.083Z,9.03
2018-10-02T10:32:24.341Z,9.02
2018-10-02T10:33:29.619Z,8.91
2018-10-02T10:34:35.918Z,8.84
2018-10-02T10:35:42.602Z,8.79
2018-10-02T10:36:48.354Z,8.83
2018-10-02T10:37:54.616Z,8.87
2018-10-02T10:39:00.884Z,8.85
2018-10-02T10:40:07.113Z,8.89
2018-10-02T10:41:13.363Z,8.89
2018-10-02T10:42:19.614Z,8.87
2018-10-02T10:43:25.854Z,8.92
2018-10-02T10:44:32.103Z,9.02
2018-10-02T10:45:39.903Z,9.07
2018-10-02T10:46:44.635Z,9.07
2018-10-02T10:47:51.366Z,9.14
2018-10-02T10:48:57.123Z,9.16
2018-10-02T10:50:03.376Z,9.17
2018-10-02T10:51:09.625Z,9.10
2018-10-02T10:52:16.377Z,9.08
2018-10-02T10:53:22.139Z,9.08
2018-10-02T10:54:28.893Z,9.12
2018-10-02T10:55:34.647Z,9.10
2018-10-02T10:56:41.404Z,9.00
2018-10-02T10:57:47.651Z,8.99
2018-10-02T10:58:53.428Z,9.10
2018-10-02T10:59:59.703Z,9.02
2018-10-02T11:01:06.437Z,9.04
2018-10-02T11:02:12.285Z,9.05
2018-10-02T11:03:18.949Z,9.05
2018-10-02T11:04:25.208Z,9.15
2018-10-02T11:05:31.453Z,9.17
2018-10-02T11:06:37.727Z,9.23
2018-10-02T11:07:43.999Z,9.26
2018-10-02T11:08:50.276Z,9.25
2018-10-02T11:09:56.504Z,9.15
2018-10-02T11:11:02.276Z,9.10
2018-10-02T11:12:09.038Z,9.13
2018-10-02T11:13:15.336Z,9.18
2018-10-02T11:14:21.050Z,9.19
2018-10-02T11:15:27.326Z,9.20
2018-10-02T11:16:34.066Z,9.28
2018-10-02T11:17:40.336Z,9.37
2018-10-02T11:18:46.591Z,9.34
2018-10-02T11:19:52.844Z,9.36
2018-10-02T11:20:59.118Z,9.32
2018-10-02T11:22:05.380Z,9.34
2018-10-02T11:23:11.639Z,9.35
2018-10-02T11:24:17.910Z,9.36
2018-10-02T11:25:24.388Z,9.33
2018-10-02T11:26:30.438Z,9.22
2018-10-02T11:27:36.704Z,9.19
2018-10-02T11:28:42.972Z,9.16
2018-10-02T11:29:48.793Z,9.10
2018-10-02T11:30:55.495Z,8.98
2018-10-02T11:32:01.252Z,9.06
2018-10-02T11:33:08.000Z,9.10
2018-10-02T11:34:14.272Z,9.06
2018-10-02T11:35:20.592Z,8.99
2018-10-02T11:36:26.285Z,8.90
2018-10-02T11:37:32.749Z,8.80
2018-10-02T11:38:38.807Z,8.62
2018-10-02T11:39:45.543Z,8.49
2018-10-02T11:40:51.300Z,8.39
2018-10-02T11:41:57.543Z,8.34
2018-10-02T11:43:04.313Z,8.29
2018-10-02T11:44:10.539Z,8.22
2018-10-02T11:45:16.293Z,8.14
2018-10-02T11:46:23.007Z,8.10
2018-10-02T11:47:28.747Z,7.99
2018-10-02T11:48:35.476Z,7.97
2018-10-02T11:49:42.713Z,7.99
2018-10-02T11:50:48.008Z,8.00
2018-10-02T11:51:53.682Z,7.97
2018-10-02T11:53:00.423Z,7.93
2018-10-02T11:54:06.155Z,7.91
2018-10-02T11:55:12.884Z,7.93
2018-10-02T11:56:18.606Z,7.90
2018-10-02T11:57:25.348Z,7.89
2018-10-02T11:58:31.554Z,7.90
2018-10-02T11:59:37.850Z,7.92
2018-10-02T12:00:44.090Z,7.89
2018-10-02T12:01:49.737Z,7.88
2018-10-02T12:02:56.450Z,7.86
2018-10-02T12:04:02.686Z,7.91
2018-10-02T12:05:08.905Z,7.93
2018-10-02T12:06:15.139Z,7.93
2018-10-02T12:07:21.356Z,7.90
2018-10-02T12:08:27.592Z,7.88
2018-10-02T12:09:33.307Z,7.87
2018-10-02T12:10:39.537Z,7.90
2018-10-02T12:11:46.271Z,7.91
2018-10-02T12:12:52.003Z,7.93
2018-10-02T12:13:58.751Z,8.00
2018-10-02T12:15:04.937Z,8.05
2018-10-02T12:16:11.159Z,8.07
2018-10-02T12:17:17.379Z,8.10
2018-10-02T12:18:23.603Z,8.04
2018-10-02T12:19:29.856Z,8.08
2018-10-02T12:20:35.578Z,8.05
2018-10-02T12:21:42.292Z,8.03
2018-10-02T12:22:48.508Z,8.03
2018-10-02T12:23:54.741Z,8.00
2018-10-02T12:25:00.977Z,7.93
2018-10-02T12:26:07.210Z,7.91
2018-10-02T12:27:12.937Z,7.94
2018-10-02T12:28:19.700Z,7.97
2018-10-02T12:29:25.876Z,7.96
2018-10-02T12:30:31.611Z,7.93
2018-10-02T12:31:37.836Z,7.92
2018-10-02T12:32:44.552Z,7.96
2018-10-02T12:33:50.781Z,7.95
2018-10-02T12:34:56.988Z,7.99
2018-10-02T12:36:03.231Z,7.99
2018-10-02T12:37:09.445Z,8.01
2018-10-02T12:38:15.661Z,7.97
2018-10-02T12:39:21.462Z,7.96
2018-10-02T12:40:28.095Z,8.02
2018-10-02T12:41:34.333Z,8.04
2018-10-02T12:42:40.066Z,8.07
2018-10-02T12:43:46.294Z,8.04
2018-10-02T12:44:52.509Z,8.05
2018-10-02T12:45:58.729Z,8.07
2018-10-02T12:47:05.048Z,8.05
2018-10-02T12:48:11.187Z,8.10
2018-10-02T12:49:17.929Z,8.11
2018-10-02T12:50:23.624Z,8.12
2018-10-02T12:51:30.372Z,8.10
2018-10-02T12:52:36.178Z,8.10
2018-10-02T12:53:42.328Z,8.11
2018-10-02T12:54:48.535Z,8.17
2018-10-02T12:55:55.262Z,8.17
2018-10-02T12:57:01.001Z,8.19
2018-10-02T12:58:07.726Z,8.18
2018-10-02T12:59:13.498Z,8.13
2018-10-02T13:00:20.275Z,8.16
2018-10-02T13:01:25.909Z,8.17
2018-10-02T13:02:32.626Z,8.19
2018-10-02T13:03:38.863Z,8.21
2018-10-02T13:04:44.602Z,8.26
2018-10-02T13:05:51.322Z,8.26
2018-10-02T13:06:57.100Z,8.22
2018-10-02T13:08:03.776Z,8.25
2018-10-02T13:09:10.035Z,8.33
2018-10-02T13:10:16.271Z,8.32
2018-10-02T13:11:21.976Z,8.31
2018-10-02T13:12:28.220Z,8.34
2018-10-02T13:13:34.443Z,8.31
2018-10-02T13:14:41.180Z,8.27
2018-10-02T13:15:48.398Z,8.29
2018-10-02T13:16:53.641Z,8.34
2018-10-02T13:17:59.363Z,8.38
2018-10-02T13:19:05.605Z,8.37
2018-10-02T13:20:11.833Z,8.37
2018-10-02T13:21:18.062Z,8.44
2018-10-02T13:22:24.794Z,8.45
2018-10-02T13:23:31.033Z,8.50
2018-10-02T13:24:37.315Z,8.54
2018-10-02T13:25:43.020Z,8.48
2018-10-02T13:26:49.235Z,8.50
2018-10-02T13:27:55.973Z,8.47
2018-10-02T13:29:02.276Z,8.51
2018-10-02T13:30:08.435Z,8.52
2018-10-02T13:31:14.663Z,8.52
2018-10-02T13:32:20.954Z,8.51
2018-10-02T13:33:26.659Z,8.54
2018-10-02T13:34:32.899Z,8.54
2018-10-02T13:35:39.645Z,8.53
2018-10-02T13:36:45.361Z,8.51
2018-10-02T13:37:51.591Z,8.44
2018-10-02T13:38:57.842Z,8.37
2018-10-02T13:40:04.578Z,8.33
2018-10-02T13:41:10.792Z,8.32
2018-10-02T13:42:16.535Z,8.28
2018-10-02T13:43:23.262Z,8.31
2018-10-02T13:44:29.507Z,8.35
2018-10-02T13:45:35.749Z,8.36
2018-10-02T13:46:41.976Z,8.38
2018-10-02T13:47:48.281Z,8.39
2018-10-02T13:48:53.938Z,8.37
2018-10-02T13:50:00.660Z,8.35
2018-10-02T13:51:06.891Z,8.31
2018-10-02T13:52:13.127Z,8.27
2018-10-02T13:53:19.351Z,8.28
2018-10-02T13:54:25.084Z,8.34
2018-10-02T13:55:31.806Z,8.41
2018-10-02T13:56:38.037Z,8.47
2018-10-02T13:57:44.281Z,8.55
2018-10-02T13:58:50.007Z,8.54
2018-10-02T13:59:56.732Z,8.50
2018-10-02T14:01:02.463Z,8.50
2018-10-02T14:02:09.188Z,8.57
2018-10-02T14:03:14.931Z,8.70
2018-10-02T14:04:21.670Z,8.84
2018-10-02T14:05:27.913Z,8.88
2018-10-02T14:06:34.148Z,8.88
2018-10-02T14:07:39.898Z,8.91
2018-10-02T14:08:46.648Z,8.84
2018-10-02T14:09:52.379Z,8.76
2018-10-02T14:10:59.114Z,8.68
2018-10-02T14:12:05.362Z,8.66
2018-10-02T14:13:11.112Z,8.69
2018-10-02T14:14:17.349Z,8.71
2018-10-02T14:15:24.142Z,8.68
2018-10-02T14:16:30.325Z,8.73
2018-10-02T14:17:36.563Z,8.73
2018-10-02T14:18:42.824Z,8.64
2018-10-02T14:19:49.049Z,8.70
2018-10-02T14:20:55.294Z,8.69
2018-10-02T14:22:01.031Z,8.71
2018-10-02T14:23:07.774Z,8.74
2018-10-02T14:24:14.041Z,8.79
2018-10-02T14:25:20.270Z,8.77
2018-10-02T14:26:26.010Z,8.74
2018-10-02T14:27:32.759Z,8.76
2018-10-02T14:28:39.981Z,8.72
2018-10-02T14:29:45.245Z,8.69
2018-10-02T14:30:51.470Z,8.72
2018-10-02T14:31:57.725Z,8.71
2018-10-02T14:33:03.957Z,8.73
2018-10-02T14:34:09.721Z,8.76
2018-10-02T14:35:16.446Z,8.80
2018-10-02T14:36:22.819Z,8.84
2018-10-02T14:37:28.444Z,8.86
2018-10-02T14:38:35.194Z,8.90
2018-10-02T14:39:41.446Z,8.93
2018-10-02T14:40:47.689Z,8.89